Time;durP1;ratioP1;P1;durP2;ratioP2;P2;SDS_P1;SDS_P2;PMS_P1;PMS_P2;Temp;Humidity;BMP_temperature;BMP_pressure;BME280_temperature;BME280_humidity;BME280_pressure;Samples;Min_cycle;Max_cycle;Signal;HPM_P1;HPM_P2
2023/10/05 00:01:30;;;;;;;7.35;3.10;;;8.20;99.90;;;;;;5083590;28;20016;-85
2023/10/05 00:03:56;;;;;;;5.47;2.90;;;;;;;;;;5083366;28;20074;-84
2023/10/05 00:06:24;;;;;;;5.20;3.08;;;8.40;99.90;;;;;;5083159;28;20016;-85
2023/10/05 00:08:52;;;;;;;6.22;3.15;;;8.40;99.90;;;;;;5082983;28;20020;-84
2023/10/05 00:11:36;;;;;;;5.07;2.83;;;8.60;99.90;;;;;;5083283;28;20099;-85
2023/10/05 00:14:12;;;;;;;8.30;3.13;;;8.50;99.90;;;;;;5082896;28;20020;-85
2023/10/05 00:16:43;;;;;;;6.95;3.28;;;8.40;99.90;;;;;;5082968;28;20020;-85
2023/10/05 00:19:12;;;;;;;10.05;3.20;;;8.40;99.90;;;;;;5082697;28;20025;-84
2023/10/05 00:21:52;;;;;;;9.68;3.13;;;8.30;99.90;;;;;;5082766;28;20016;-85
2023/10/05 00:24:35;;;;;;;9.82;3.47;;;8.30;99.90;;;;;;5082688;28;20189;-85
2023/10/05 00:27:03;;;;;;;5.35;2.95;;;8.30;99.90;;;;;;5082582;28;20044;-86
2023/10/05 00:29:35;;;;;;;4.55;2.47;;;8.30;99.90;;;;;;5082787;28;20028;-84
2023/10/05 00:32:01;;;;;;;4.90;3.08;;;;;;;;;;5082490;28;20091;-85
2023/10/05 00:34:27;;;;;;;5.18;3.28;;;8.00;99.90;;;;;;5082670;28;20028;-84
2023/10/05 00:36:58;;;;;;;6.70;3.40;;;8.20;99.90;;;;;;5082526;28;20087;-84
2023/10/05 00:39:24;;;;;;;6.38;2.67;;;8.30;99.90;;;;;;5082047;28;20078;-85
2023/10/05 00:42:11;;;;;;;5.28;3.25;;;8.10;99.90;;;;;;5082513;28;20084;-85
2023/10/05 00:44:39;;;;;;;4.88;2.80;;;8.40;99.90;;;;;;5083255;28;20036;-85
2023/10/05 00:47:06;;;;;;;3.55;2.17;;;8.70;99.90;;;;;;5082543;28;20328;-85
2023/10/05 00:52:23;;;;;;;7.63;3.22;;;8.20;99.90;;;;;;5083269;28;20031;-85
2023/10/05 00:54:51;;;;;;;8.60;3.33;;;8.30;99.90;;;;;;5095882;28;20076;-85
2023/10/05 00:57:22;;;;;;;4.60;3.08;;;8.20;99.90;;;;;;5102292;28;20031;-84
2023/10/05 01:02:35;;;;;;;6.35;2.90;;;8.30;99.90;;;;;;5103625;28;20031;-85
2023/10/05 01:05:24;;;;;;;5.60;2.58;;;;;;;;;;5102270;28;20096;-85
2023/10/05 01:07:55;;;;;;;4.65;2.50;;;;;;;;;;5102929;28;20058;-85
2023/10/05 01:10:28;;;;;;;4.88;2.85;;;;;;;;;;5101835;28;20048;-87
2023/10/05 01:12:55;;;;;;;7.20;2.90;;;;;;;;;;5101968;28;20061;-85
2023/10/05 01:15:25;;;;;;;6.75;2.67;;;8.80;99.90;;;;;;5102174;28;20180;-84
2023/10/05 01:17:52;;;;;;;6.05;2.88;;;;;;;;;;5102177;28;20189;-87
2023/10/05 01:22:47;;;;;;;7.55;4.40;;;8.40;99.90;;;;;;5103131;28;20323;-86
2023/10/05 01:25:14;;;;;;;9.82;3.40;;;8.30;99.90;;;;;;5101226;28;20316;-84
2023/10/05 01:27:51;;;;;;;4.45;2.78;;;8.40;99.90;;;;;;5101329;28;20059;-84
2023/10/05 01:30:17;;;;;;;7.38;3.30;;;8.50;99.90;;;;;;5101468;28;20314;-85
2023/10/05 01:32:44;;;;;;;6.40;3.47;;;8.30;99.90;;;;;;5101554;28;20387;-85
2023/10/05 01:35:12;;;;;;;6.63;3.25;;;8.40;99.90;;;;;;5101682;28;20365;-85
2023/10/05 01:37:45;;;;;;;5.30;3.27;;;8.20;99.90;;;;;;5101613;28;20330;-84
2023/10/05 01:42:48;;;;;;;6.22;2.65;;;8.20;99.90;;;;;;5102516;28;20279;-84
2023/10/05 01:45:33;;;;;;;6.50;3.08;;;8.50;99.90;;;;;;5101677;28;20312;-85
2023/10/05 01:48:04;;;;;;;7.55;4.13;;;8.10;99.90;;;;;;5101652;28;20299;-85
2023/10/05 01:50:32;;;;;;;11.38;3.50;;;8.40;99.90;;;;;;5101027;28;20016;-84
2023/10/05 01:53:08;;;;;;;5.50;3.20;;;8.40;99.90;;;;;;5101086;28;20024;-84
2023/10/05 01:55:34;;;;;;;5.78;3.13;;;7.90;99.90;;;;;;5101354;28;20095;-85
2023/10/05 01:58:01;;;;;;;9.68;3.78;;;8.00;99.90;;;;;;5101377;28;20019;-86
2023/10/05 02:00:26;;;;;;;6.40;3.33;;;7.60;99.90;;;;;;5100840;28;20084;-84
2023/10/05 02:02:55;;;;;;;5.75;2.70;;;;;;;;;;5101251;28;20023;-85
2023/10/05 02:05:21;;;;;;;4.72;2.78;;;8.40;99.90;;;;;;5101202;28;20019;-84
2023/10/05 02:07:50;;;;;;;4.25;2.65;;;8.20;99.90;;;;;;5101296;28;20020;-85
2023/10/05 02:10:20;;;;;;;6.80;3.10;;;7.80;99.90;;;;;;5100766;28;20024;-84
2023/10/05 02:12:54;;;;;;;6.32;2.83;;;8.20;99.90;;;;;;5100825;28;20016;-84
2023/10/05 02:15:28;;;;;;;9.27;2.17;;;8.10;99.90;;;;;;5100950;28;20020;-85
2023/10/05 02:17:55;;;;;;;5.45;2.65;;;8.30;99.90;;;;;;5100937;28;20031;-84
2023/10/05 02:22:57;;;;;;;7.95;3.20;;;;;;;;;;5102123;28;20024;-84
2023/10/05 02:25:33;;;;;;;4.97;3.00;;;;;;;;;;5100995;28;20030;-85
2023/10/05 02:27:59;;;;;;;7.88;3.53;;;;;;;;;;5101048;28;20053;-85
2023/10/05 02:30:29;;;;;;;5.47;3.28;;;8.00;99.90;;;;;;5100970;28;20016;-84
2023/10/05 02:32:58;;;;;;;5.90;3.45;;;8.00;99.90;;;;;;5100799;28;20027;-85
2023/10/05 02:35:33;;;;;;;7.60;4.18;;;8.20;99.90;;;;;;5100876;28;20039;-84
2023/10/05 02:37:59;;;;;;;11.05;3.55;;;8.30;99.90;;;;;;5100583;28;20220;-84
2023/10/05 02:40:36;;;;;;;8.70;3.67;;;8.00;99.90;;;;;;5100503;28;20375;-85
2023/10/05 02:43:07;;;;;;;5.22;3.17;;;8.00;99.90;;;;;;5100626;28;20036;-87
2023/10/05 02:45:37;;;;;;;7.80;3.25;;;8.10;99.90;;;;;;5100701;28;20016;-85
2023/10/05 02:48:06;;;;;;;6.80;3.30;;;8.10;99.90;;;;;;5100433;28;20054;-85
2023/10/05 02:50:32;;;;;;;8.52;3.55;;;;;;;;;;5100552;28;20099;-85
2023/10/05 02:53:05;;;;;;;8.52;3.03;;;7.90;99.90;;;;;;5100754;28;20095;-84
2023/10/05 02:55:37;;;;;;;8.70;3.47;;;7.60;99.90;;;;;;5100142;28;20028;-85
2023/10/05 02:58:07;;;;;;;4.97;2.45;;;7.70;99.90;;;;;;5100747;28;20013;-84
2023/10/05 03:00:33;;;;;;;4.43;2.47;;;7.80;99.90;;;;;;5100684;28;20051;-85
2023/10/05 03:03:03;;;;;;;6.15;3.28;;;7.80;99.90;;;;;;5100976;28;20012;-84
2023/10/05 03:05:32;;;;;;;4.78;2.50;;;;;;;;;;5104334;28;20023;-84
2023/10/05 03:07:58;;;;;;;4.20;2.60;;;7.50;99.90;;;;;;5104177;28;20121;-85
2023/10/05 03:10:25;;;;;;;3.83;2.47;;;;;;;;;;5103910;28;20028;-85
2023/10/05 03:12:50;;;;;;;7.22;2.80;;;7.80;99.90;;;;;;5103743;28;20020;-85
2023/10/05 03:15:22;;;;;;;6.13;2.63;;;;;;;;;;5103875;28;20099;-85
2023/10/05 03:17:51;;;;;;;6.47;3.55;;;8.00;99.90;;;;;;5103834;28;20242;-85
2023/10/05 03:20:18;;;;;;;7.18;2.88;;;;;;;;;;5101205;28;20040;-84
2023/10/05 03:22:47;;;;;;;7.95;2.85;;;7.70;99.90;;;;;;5083310;28;20281;-84
2023/10/05 03:25:15;;;;;;;5.20;3.10;;;;;;;;;;5095636;28;20029;-85
2023/10/05 03:27:41;;;;;;;7.95;3.28;;;7.50;99.90;;;;;;5103551;28;20056;-85
2023/10/05 03:30:13;;;;;;;7.25;4.03;;;7.50;99.90;;;;;;5104051;28;20106;-84
2023/10/05 03:32:42;;;;;;;6.45;3.50;;;7.30;99.90;;;;;;5101997;28;20079;-85
2023/10/05 03:35:13;;;;;;;5.05;3.35;;;7.40;99.90;;;;;;5080512;28;20216;-84
2023/10/05 03:37:40;;;;;;;6.22;3.30;;;7.30;99.90;;;;;;5099967;28;20017;-84
2023/10/05 03:40:08;;;;;;;6.30;3.25;;;7.20;99.90;;;;;;5102930;28;20379;-84
2023/10/05 03:42:34;;;;;;;4.60;3.15;;;7.40;99.90;;;;;;5103244;28;20016;-84
2023/10/05 03:45:11;;;;;;;5.70;3.80;;;7.10;99.90;;;;;;5104505;28;20334;-85
2023/10/05 03:47:39;;;;;;;4.68;3.05;;;7.60;99.90;;;;;;5103566;28;20016;-85
2023/10/05 03:50:07;;;;;;;7.47;3.35;;;7.40;99.90;;;;;;5103329;28;20024;-84
2023/10/05 03:52:33;;;;;;;10.82;3.92;;;;;;;;;;5103246;28;20020;-84
2023/10/05 03:55:09;;;;;;;8.75;3.33;;;7.20;99.90;;;;;;5083665;28;20059;-85
2023/10/05 03:57:35;;;;;;;4.40;2.80;;;7.10;99.90;;;;;;5083181;28;20208;-84
2023/10/05 04:00:18;;;;;;;6.07;2.72;;;;;;;;;;5082822;28;20037;-87
2023/10/05 04:02:44;;;;;;;7.57;3.35;;;7.50;99.90;;;;;;5082753;28;20017;-85
2023/10/05 04:05:11;;;;;;;5.85;3.00;;;7.40;99.90;;;;;;5082850;28;20369;-84
2023/10/05 04:07:38;;;;;;;4.75;2.70;;;7.40;99.90;;;;;;5102569;28;20024;-85
2023/10/05 04:10:06;;;;;;;5.68;3.00;;;7.60;99.90;;;;;;5102683;28;20334;-84
2023/10/05 04:12:32;;;;;;;10.35;2.75;;;;;;;;;;5102666;28;20024;-85
2023/10/05 04:15:05;;;;;;;6.65;3.17;;;7.70;99.90;;;;;;5102537;28;20091;-84
2023/10/05 04:17:31;;;;;;;6.65;2.90;;;;;;;;;;5102688;28;20053;-84
2023/10/05 04:19:57;;;;;;;10.90;3.03;;;7.50;99.90;;;;;;5102555;28;20050;-85
2023/10/05 04:22:24;;;;;;;6.93;3.83;;;7.10;99.90;;;;;;5102561;28;20016;-85
2023/10/05 04:24:50;;;;;;;11.10;3.38;;;7.50;99.90;;;;;;5102531;28;20273;-85
2023/10/05 04:27:18;;;;;;;4.80;2.95;;;;;;;;;;5102492;28;20040;-85
2023/10/05 04:29:44;;;;;;;6.68;2.95;;;7.50;99.90;;;;;;5102240;28;20035;-87
2023/10/05 04:32:15;;;;;;;7.95;3.25;;;7.40;99.90;;;;;;5099525;28;20091;-86
2023/10/05 04:34:41;;;;;;;5.78;2.97;;;;;;;;;;5101644;28;20020;-84
2023/10/05 04:37:07;;;;;;;7.35;3.03;;;;;;;;;;5103293;28;20103;-85
2023/10/05 04:39:35;;;;;;;6.00;2.83;;;7.40;99.90;;;;;;5102331;28;20347;-87
2023/10/05 04:42:11;;;;;;;4.80;2.60;;;;;;;;;;5102478;28;20024;-84
2023/10/05 04:44:38;;;;;;;7.30;3.65;;;;;;;;;;5102185;28;20264;-85
2023/10/05 04:47:06;;;;;;;6.78;2.95;;;7.30;99.90;;;;;;5102710;28;20012;-84
2023/10/05 04:49:35;;;;;;;9.55;4.00;;;;;;;;;;5103116;28;20024;-84
2023/10/05 04:52:04;;;;;;;6.13;3.30;;;;;;;;;;5102107;28;20049;-85
2023/10/05 04:54:34;;;;;;;11.60;4.78;;;7.20;99.90;;;;;;5104403;28;20048;-85
2023/10/05 04:57:07;;;;;;;11.90;4.88;;;7.10;99.90;;;;;;5102620;28;20019;-86
2023/10/05 05:02:12;;;;;;;14.75;3.47;;;7.20;99.90;;;;;;5105229;28;20069;-86
2023/10/05 05:07:28;;;;;;;6.95;3.80;;;7.20;99.90;;;;;;5093917;28;20096;-85
2023/10/05 05:09:55;;;;;;;8.23;3.55;;;7.10;99.90;;;;;;5085658;28;20024;-84
2023/10/05 05:12:24;;;;;;;10.50;4.43;;;;;;;;;;5101588;28;20399;-84
2023/10/05 05:14:52;;;;;;;14.43;3.25;;;7.00;99.90;;;;;;5101007;28;20020;-81
2023/10/05 05:17:19;;;;;;;6.20;3.20;;;7.20;99.90;;;;;;5101343;28;20028;-83
2023/10/05 05:19:46;;;;;;;7.18;3.33;;;7.20;99.90;;;;;;5101790;28;20069;-79
2023/10/05 05:22:13;;;;;;;9.23;3.53;;;7.30;99.90;;;;;;5100777;28;20011;-81
2023/10/05 05:24:40;;;;;;;6.05;3.55;;;7.20;99.90;;;;;;5100185;28;20032;-79
2023/10/05 05:29:45;;;;;;;7.40;3.55;;;7.30;99.90;;;;;;5102163;28;20043;-81
2023/10/05 05:32:11;;;;;;;6.38;3.30;;;7.20;99.90;;;;;;5119199;28;20016;-84
2023/10/05 05:34:42;;;;;;;6.50;3.00;;;7.20;99.90;;;;;;5103234;28;20045;-84
2023/10/05 05:37:11;;;;;;;5.63;2.83;;;7.30;99.90;;;;;;5098342;28;20024;-85
2023/10/05 05:39:39;;;;;;;6.38;3.20;;;6.80;99.90;;;;;;5098332;28;20054;-82
2023/10/05 05:42:14;;;;;;;7.85;3.28;;;7.20;99.90;;;;;;5083524;28;20025;-85
2023/10/05 05:44:41;;;;;;;8.35;4.28;;;7.30;99.90;;;;;;5083210;28;20020;-84
2023/10/05 05:47:09;;;;;;;9.65;3.40;;;7.30;99.90;;;;;;5099883;28;20020;-85
2023/10/05 05:49:55;;;;;;;6.65;2.72;;;7.40;99.90;;;;;;5100606;28;20012;-84
2023/10/05 05:52:22;;;;;;;8.10;2.45;;;;;;;;;;5063141;28;20025;-85
2023/10/05 05:54:48;;;;;;;9.10;3.30;;;;;;;;;;5046332;28;20033;-86
2023/10/05 05:57:20;;;;;;;5.20;2.80;;;7.70;99.90;;;;;;5045328;28;20030;-86
2023/10/05 05:59:46;;;;;;;7.65;3.15;;;7.70;99.90;;;;;;5045438;28;20108;-86
2023/10/05 06:02:13;;;;;;;6.80;2.63;;;7.90;99.90;;;;;;5046016;28;20044;-84
2023/10/05 06:04:41;;;;;;;12.88;3.47;;;7.80;99.90;;;;;;5045330;28;20060;-85
2023/10/05 06:07:13;;;;;;;13.15;2.53;;;7.80;99.90;;;;;;5046318;28;20359;-85
2023/10/05 06:09:40;;;;;;;8.52;2.67;;;;;;;;;;5044413;28;20033;-85
2023/10/05 06:12:05;;;;;;;3.72;2.42;;;8.00;99.90;;;;;;5044437;28;20021;-85
2023/10/05 06:14:34;;;;;;;10.52;2.80;;;;;;;;;;5045185;28;20084;-85
2023/10/05 06:17:01;;;;;;;7.78;3.05;;;8.10;99.90;;;;;;5044697;28;20094;-85
2023/10/05 06:19:27;;;;;;;5.85;2.55;;;7.80;99.90;;;;;;5044362;28;20041;-84
2023/10/05 06:21:53;;;;;;;8.75;3.30;;;7.90;99.90;;;;;;5044393;28;20013;-85
2023/10/05 06:24:20;;;;;;;6.55;2.58;;;;;;;;;;5081988;28;20036;-86
2023/10/05 06:26:46;;;;;;;3.42;2.28;;;;;;;;;;5102103;28;20036;-85
2023/10/05 06:29:13;;;;;;;4.82;2.28;;;;;;;;;;5082871;28;20024;-84
2023/10/05 06:31:40;;;;;;;5.57;2.90;;;8.60;99.90;;;;;;5084754;28;20017;-85
2023/10/05 06:34:17;;;;;;;4.72;2.42;;;;;;;;;;5105019;28;20074;-85
2023/10/05 06:36:44;;;;;;;4.20;2.78;;;8.80;99.90;;;;;;5106281;28;20027;-84
2023/10/05 06:39:14;;;;;;;4.10;1.85;;;;;;;;;;5102274;28;20036;-84
2023/10/05 06:41:43;;;;;;;7.40;2.70;;;9.20;99.90;;;;;;5085997;28;20028;-84
2023/10/05 06:44:10;;;;;;;7.40;2.33;;;;;;;;;;5085711;28;20024;-84
2023/10/05 06:46:37;;;;;;;3.65;2.05;;;;;;;;;;5085988;28;20025;-84
2023/10/05 06:49:05;;;;;;;2.42;1.67;;;9.70;99.90;;;;;;5085434;28;20030;-85
2023/10/05 06:51:31;;;;;;;3.25;1.90;;;10.10;99.90;;;;;;5086929;28;20020;-84
2023/10/05 06:54:00;;;;;;;4.15;2.63;;;10.40;99.90;;;;;;5084986;28;20023;-85
2023/10/05 06:56:26;;;;;;;4.38;2.15;;;10.20;99.90;;;;;;5085219;28;20032;-87
2023/10/05 06:58:52;;;;;;;4.53;2.42;;;10.50;99.90;;;;;;5084838;28;20092;-85
2023/10/05 07:01:21;;;;;;;6.70;2.60;;;10.60;99.90;;;;;;5085251;28;20020;-84
2023/10/05 07:03:52;;;;;;;5.68;2.45;;;10.90;99.90;;;;;;5085222;28;20016;-85
2023/10/05 07:06:19;;;;;;;5.68;2.50;;;10.90;99.90;;;;;;5085028;28;20097;-84
2023/10/05 07:08:46;;;;;;;6.55;3.00;;;10.80;99.90;;;;;;5085168;28;20092;-86
2023/10/05 07:11:12;;;;;;;5.65;2.70;;;;;;;;;;5085474;28;20070;-85
2023/10/05 07:13:38;;;;;;;7.70;2.47;;;11.00;99.90;;;;;;5084890;28;20307;-84
2023/10/05 07:16:05;;;;;;;10.23;2.58;;;;;;;;;;5084859;28;20096;-85
2023/10/05 07:18:31;;;;;;;32.42;5.40;;;;;;;;;;5085853;28;20051;-86
2023/10/05 07:20:57;;;;;;;7.38;3.40;;;;;;;;;;5087662;28;20028;-85
2023/10/05 07:23:24;;;;;;;5.05;3.10;;;12.10;99.90;;;;;;5086834;28;20012;-86
2023/10/05 07:25:50;;;;;;;9.85;2.50;;;;;;;;;;5087718;28;20024;-84
2023/10/05 07:28:16;;;;;;;4.15;2.30;;;;;;;;;;5096214;28;20109;-84
2023/10/05 07:30:42;;;;;;;8.35;3.00;;;;;;;;;;5102375;28;20036;-80
2023/10/05 07:33:08;;;;;;;4.47;2.13;;;;;;;;;;5103933;28;20020;-84
2023/10/05 07:35:36;;;;;;;8.95;2.35;;;;;;;;;;5104121;28;20008;-85
2023/10/05 07:38:02;;;;;;;5.78;2.17;;;;;;;;;;5104172;28;20039;-84
2023/10/05 07:40:28;;;;;;;11.95;2.25;;;12.80;98.90;;;;;;5100978;28;20027;-85
2023/10/05 07:42:54;;;;;;;6.40;2.13;;;;;;;;;;5090757;28;20062;-85
2023/10/05 07:45:20;;;;;;;5.18;1.90;;;;;;;;;;5089003;28;20022;-85
2023/10/05 07:47:47;;;;;;;16.50;2.58;;;;;;;;;;5104221;28;20024;-85
2023/10/05 07:50:13;;;;;;;8.60;3.30;;;;;;;;;;5104160;28;20145;-84
2023/10/05 07:52:42;;;;;;;5.45;3.15;;;14.20;94.20;;;;;;5104380;28;20012;-84
2023/10/05 07:55:08;;;;;;;8.35;2.47;;;13.80;97.80;;;;;;5104384;28;20016;-84
2023/10/05 07:57:34;;;;;;;5.45;2.33;;;;;;;;;;5104386;28;20081;-87
2023/10/05 08:00:01;;;;;;;5.82;2.63;;;;;;;;;;5103015;28;20032;-84
2023/10/05 08:02:27;;;;;;;12.90;2.58;;;;;;;;;;5104290;28;20043;-85
2023/10/05 08:04:53;;;;;;;10.60;2.55;;;;;;;;;;5104181;28;20019;-85
2023/10/05 08:07:19;;;;;;;9.40;2.22;;;;;;;;;;5104302;28;20049;-84
2023/10/05 08:09:44;;;;;;;7.70;2.35;;;15.30;93.10;;;;;;5103789;28;20027;-84
2023/10/05 08:12:15;;;;;;;3.35;1.35;;;15.40;75.00;;;;;;5103793;28;20016;-84
2023/10/05 08:14:41;;;;;;;6.95;1.30;;;;;;;;;;5103373;28;20015;-86
2023/10/05 08:17:07;;;;;;;3.92;1.83;;;;;;;;;;5103403;28;20035;-85
2023/10/05 08:19:33;;;;;;;2.38;1.52;;;;;;;;;;5104679;28;20138;-85
2023/10/05 08:22:00;;;;;;;4.03;2.05;;;;;;;;;;5103789;28;20023;-84
2023/10/05 08:24:31;;;;;;;5.03;1.73;;;;;;;;;;5103440;28;20095;-84
2023/10/05 08:26:57;;;;;;;2.85;1.50;;;16.00;81.80;;;;;;5103336;28;20127;-85
2023/10/05 08:29:23;;;;;;;6.53;2.35;;;;;;;;;;5103545;28;20028;-85
2023/10/05 08:31:52;;;;;;;5.38;1.60;;;16.60;67.10;;;;;;5097703;28;20024;-84
2023/10/05 08:34:21;;;;;;;5.15;1.35;;;17.20;62.90;;;;;;5096448;28;20024;-86
2023/10/05 08:36:54;;;;;;;5.63;2.00;;;17.00;58.70;;;;;;5102930;28;20083;-85
2023/10/05 08:39:26;;;;;;;2.92;1.42;;;17.40;68.10;;;;;;5084132;28;20055;-84
2023/10/05 08:42:02;;;;;;;5.00;1.60;;;17.10;53.20;;;;;;5083679;28;20044;-86
2023/10/05 08:44:28;;;;;;;5.45;2.03;;;16.90;60.50;;;;;;5083673;28;20643;-85
2023/10/05 08:47:00;;;;;;;2.90;1.50;;;17.20;54.60;;;;;;5089181;28;20012;-85
2023/10/05 08:49:27;;;;;;;2.95;1.55;;;17.20;56.70;;;;;;5103677;28;20031;-86
2023/10/05 08:51:54;;;;;;;5.68;1.90;;;;;;;;;;5105159;28;20027;-86
2023/10/05 08:54:27;;;;;;;3.35;1.23;;;18.00;56.40;;;;;;5105374;28;20038;-85
2023/10/05 08:56:58;;;;;;;4.47;2.10;;;18.10;58.10;;;;;;5103552;28;20036;-83
2023/10/05 08:59:26;;;;;;;3.92;1.58;;;18.40;57.40;;;;;;5101484;28;20044;-84
2023/10/05 09:01:53;;;;;;;3.83;2.10;;;18.80;54.70;;;;;;5100529;28;20200;-84
2023/10/05 09:04:29;;;;;;;2.55;1.80;;;19.20;63.40;;;;;;5101011;28;20024;-81
2023/10/05 09:07:08;;;;;;;10.90;2.15;;;19.00;52.80;;;;;;5101180;28;20026;-80
2023/10/05 09:09:38;;;;;;;2.72;1.75;;;;;;;;;;5100967;28;20020;-88
2023/10/05 09:15:27;;;;;;;4.82;1.92;;;19.60;49.20;;;;;;5102672;28;20319;-83
2023/10/05 09:17:58;;;;;;;3.05;1.77;;;20.50;59.20;;;;;;5100781;28;20073;-82
2023/10/05 09:20:31;;;;;;;3.13;1.85;;;20.40;56.60;;;;;;5101054;28;20036;-84
2023/10/05 09:23:03;;;;;;;3.78;2.20;;;;;;;;;;5101582;28;20019;-87
2023/10/05 09:25:36;;;;;;;4.43;2.20;;;21.50;43.50;;;;;;5102006;28;20030;-86
2023/10/05 09:28:19;;;;;;;8.23;7.43;;;25.90;46.10;;;;;;5100755;28;20119;-86
2023/10/05 09:30:59;;;;;;;16.17;13.95;;;27.50;68.00;;;;;;5100622;28;20205;-82
2023/10/05 09:33:34;;;;;;;12.50;11.60;;;27.80;32.90;;;;;;5100029;28;20015;-79
2023/10/05 09:36:16;;;;;;;16.60;15.60;;;28.30;40.40;;;;;;5097393;28;20024;-80
2023/10/05 09:38:46;;;;;;;23.08;21.75;;;30.70;55.20;;;;;;5092235;28;20013;-80
2023/10/05 09:41:17;;;;;;;19.70;18.25;;;29.60;33.10;;;;;;5094061;28;20074;-78
2023/10/05 09:43:44;;;;;;;33.25;20.73;;;31.60;30.20;;;;;;5099912;28;20016;-78
2023/10/05 09:46:10;;;;;;;1999.90;999.90;;;32.10;26.90;;;;;;5099615;28;20028;-76
2023/10/05 09:48:40;;;;;;;1999.90;999.90;;;32.00;27.20;;;;;;5097811;28;20028;-80
2023/10/05 09:51:13;;;;;;;1999.90;999.90;;;30.60;35.40;;;;;;5088608;28;20465;-77
2023/10/05 09:53:43;;;;;;;1999.90;999.90;;;30.40;29.70;;;;;;5092265;28;20282;-77
2023/10/05 09:56:13;;;;;;;1999.90;999.90;;;34.40;27.80;;;;;;5100784;28;20012;-76
2023/10/05 09:58:45;;;;;;;1999.90;999.90;;;36.40;28.10;;;;;;5096748;28;20062;-79
2023/10/05 10:01:10;;;;;;;1999.90;999.90;;;35.80;28.50;;;;;;5087643;28;20031;-77
2023/10/05 10:03:39;;;;;;;1999.90;999.90;;;37.00;25.90;;;;;;5092356;28;20047;-77
2023/10/05 10:06:10;;;;;;;1999.90;999.90;;;36.80;25.90;;;;;;5091449;28;20545;-75
2023/10/05 10:08:51;;;;;;;1999.90;999.90;;;36.40;26.70;;;;;;5094262;28;20092;-76
2023/10/05 10:11:18;;;;;;;1999.90;999.90;;;39.00;24.60;;;;;;5091135;28;20039;-79
2023/10/05 10:14:09;;;;;;;1999.90;999.90;;;38.00;25.30;;;;;;5093181;28;20312;-77
2023/10/05 10:16:39;;;;;;;13.70;12.98;;;33.50;27.60;;;;;;5093504;28;20031;-77
2023/10/05 10:19:08;;;;;;;6.63;6.20;;;33.60;29.80;;;;;;5096756;28;20346;-77
2023/10/05 10:21:47;;;;;;;9.27;8.45;;;31.90;30.50;;;;;;5100466;28;20061;-78
2023/10/05 10:24:20;;;;;;;14.13;13.23;;;31.30;31.20;;;;;;5105324;28;20069;-78
2023/10/05 10:27:07;;;;;;;13.98;12.93;;;31.70;29.80;;;;;;5104907;28;20028;-77
2023/10/05 10:29:45;;;;;;;1999.90;999.90;;;34.00;30.10;;;;;;5105040;28;20347;-78
2023/10/05 10:32:22;;;;;;;1999.90;999.90;;;35.30;29.20;;;;;;5103899;28;20032;-78
2023/10/05 10:34:55;;;;;;;1999.90;999.90;;;35.70;27.20;;;;;;5103634;28;20020;-79
2023/10/05 10:37:48;;;;;;;1999.90;999.90;;;36.00;25.90;;;;;;5103899;28;20273;-79
2023/10/05 10:42:52;;;;;;;1999.90;999.90;;;36.00;25.40;;;;;;5104879;28;20012;-77
2023/10/05 10:45:28;;;;;;;18.92;17.92;;;37.10;28.10;;;;;;5103611;28;20020;-79
2023/10/05 10:47:54;;;;;;;1999.90;999.90;;;37.00;25.40;;;;;;5104879;28;20012;-79
2023/10/05 10:50:29;;;;;;;1999.90;999.90;;;37.10;25.10;;;;;;5103577;28;20032;-78
2023/10/05 10:52:55;;;;;;;30.00;28.55;;;37.70;25.90;;;;;;5103779;28;20019;-79
2023/10/05 10:55:30;;;;;;;50.85;48.20;;;39.20;24.90;;;;;;5103637;28;20381;-79
2023/10/05 10:57:57;;;;;;;39.58;37.28;;;38.70;23.10;;;;;;5102785;28;20020;-78
2023/10/05 11:03:11;;;;;;;21.77;20.10;;;38.90;24.00;;;;;;5104301;28;20012;-76
2023/10/05 11:05:43;;;;;;;34.35;32.45;;;36.80;23.40;;;;;;5104163;28;20016;-76
2023/10/05 11:08:12;;;;;;;17.90;16.90;;;37.80;23.50;;;;;;5103144;28;20023;-77
2023/10/05 11:10:42;;;;;;;21.83;20.80;;;39.30;23.30;;;;;;5102909;28;20047;-76
2023/10/05 11:13:14;;;;;;;13.13;12.43;;;;;;;;;;5097502;28;20398;-76
2023/10/05 11:16:00;;;;;;;17.20;16.15;;;36.70;24.00;;;;;;5090860;28;20052;-76
2023/10/05 11:18:39;;;;;;;10.57;9.88;;;35.40;28.60;;;;;;5092315;28;20022;-76
2023/10/05 11:21:06;;;;;;;15.95;15.15;;;37.40;27.70;;;;;;5103908;28;20035;-77
2023/10/05 11:23:56;;;;;;;9.38;8.55;;;36.30;28.20;;;;;;5102128;28;20038;-78
2023/10/05 11:26:35;;;;;;;8.52;8.02;;;35.30;27.40;;;;;;5119426;28;20048;-78
2023/10/05 11:29:07;;;;;;;9.18;8.40;;;36.40;28.30;;;;;;5118798;28;20132;-77
2023/10/05 11:31:37;;;;;;;7.55;7.03;;;36.50;27.60;;;;;;5103783;28;20052;-77
2023/10/05 11:34:09;;;;;;;6.68;6.35;;;37.60;26.70;;;;;;5101201;28;20024;-78
2023/10/05 11:38:35;;;;;;;5.03;1.20;;;32.70;24.80;;;;;;5077238;28;20453;-74
2023/10/05 11:41:08;;;;;;;4.50;1.40;;;29.60;29.60;;;;;;5046484;28;20071;-74
2023/10/05 11:43:34;;;;;;;4.88;2.03;;;25.10;35.10;;;;;;5038272;28;20223;-74
2023/10/05 11:46:17;;;;;;;1.60;1.13;;;24.20;37.90;;;;;;5045378;28;20023;-74
2023/10/05 11:48:48;;;;;;;7.47;1.42;;;23.50;36.50;;;;;;5057171;28;20025;-76
2023/10/05 11:51:19;;;;;;;4.97;1.67;;;23.00;41.50;;;;;;5057126;28;20017;-74
2023/10/05 11:53:50;;;;;;;3.38;1.25;;;22.80;44.00;;;;;;5057664;28;20055;-74
2023/10/05 11:56:17;;;;;;;3.55;1.65;;;;;;;;;;5057287;28;20056;-74
2023/10/05 11:58:46;;;;;;;5.20;1.20;;;22.60;39.30;;;;;;5048700;28;20116;-74
2023/10/05 12:01:13;;;;;;;2.55;1.40;;;;;;;;;;5048290;28;20198;-74
2023/10/05 12:03:44;;;;;;;3.53;1.40;;;22.70;44.90;;;;;;5054766;28;20033;-74
2023/10/05 12:06:12;;;;;;;3.33;1.60;;;22.20;43.40;;;;;;5036404;28;20029;-75
2023/10/05 12:08:38;;;;;;;;;;;22.70;38.70;;;;;;5055054;28;20359;-74
2023/10/05 12:11:04;;;;;;;5.55;1.67;;;;;;;;;;5057535;28;19909;-74
2023/10/05 12:13:30;;;;;;;4.07;2.63;;;26.40;40.20;;;;;;5049913;28;20040;-74
2023/10/05 12:15:58;;;;;;;3.35;2.42;;;29.30;36.20;;;;;;5037195;28;20089;-74
2023/10/05 12:18:24;;;;;;;2.67;2.20;;;;;;;;;;5043732;28;20033;-74
2023/10/05 12:20:50;;;;;;;37.80;6.15;;;;;;;;;;5050554;28;20024;-74
2023/10/05 12:23:17;;;;;;;2.80;2.50;;;;;;;;;;5056215;28;20313;-76
2023/10/05 12:25:47;;;;;;;2.38;2.00;;;34.90;26.20;;;;;;5057026;28;20025;-76
2023/10/05 12:28:14;;;;;;;2.95;2.65;;;35.60;26.50;;;;;;5056572;28;20029;-76
2023/10/05 12:30:44;;;;;;;3.47;2.17;;;36.70;25.30;;;;;;5056984;28;20025;-76
2023/10/05 12:33:12;;;;;;;7.18;2.83;;;36.60;26.20;;;;;;5057057;28;20017;-77
2023/10/05 12:35:38;;;;;;;2.65;2.30;;;37.30;25.20;;;;;;5056824;28;20061;-80
2023/10/05 12:38:06;;;;;;;7.13;2.60;;;37.40;25.50;;;;;;5056682;28;20057;-79
2023/10/05 12:40:41;;;;;;;9.70;2.58;;;37.20;23.60;;;;;;5056663;28;20040;-79
2023/10/05 12:43:09;;;;;;;5.40;2.35;;;36.60;25.30;;;;;;5054743;28;20320;-76
2023/10/05 12:45:35;;;;;;;10.63;2.60;;;36.40;25.20;;;;;;5050888;28;20013;-76
2023/10/05 12:48:04;;;;;;;3.75;2.30;;;;;;;;;;5053553;28;20033;-77
2023/10/05 12:50:30;;;;;;;4.72;1.75;;;37.00;24.50;;;;;;5041158;28;20040;-73
2023/10/05 12:52:58;;;;;;;;;;;36.80;26.40;;;;;;5032610;28;20345;-76
2023/10/05 12:55:29;;;;;;;3.03;2.42;;;36.90;26.00;;;;;;5029121;28;19917;-77
2023/10/05 12:57:55;;;;;;;9.60;2.47;;;37.40;25.10;;;;;;5039917;28;20049;-76
2023/10/05 13:00:25;;;;;;;3.58;1.65;;;31.00;29.40;;;;;;5043073;28;20083;-76
2023/10/05 13:03:00;;;;;;;5.80;1.77;;;30.70;30.20;;;;;;5043243;28;20040;-78
2023/10/05 13:05:39;;;;;;;4.47;1.75;;;28.60;32.60;;;;;;5042813;28;20079;-78
2023/10/05 13:08:10;;;;;;;5.63;2.10;;;27.80;35.30;;;;;;5042404;28;20096;-78
2023/10/05 13:10:37;;;;;;;3.50;1.92;;;;;;;;;;5041489;28;20047;-81
2023/10/05 13:13:10;;;;;;;8.65;4.00;;;29.20;35.20;;;;;;5041713;28;20017;-78
2023/10/05 13:15:38;;;;;;;4.13;2.13;;;29.10;31.80;;;;;;5041838;28;20076;-79
2023/10/05 13:18:20;;;;;;;4.78;2.50;;;30.60;32.70;;;;;;5042601;28;20041;-78
2023/10/05 13:20:52;;;;;;;4.28;1.98;;;29.30;31.60;;;;;;5044835;28;20524;-82
2023/10/05 13:23:21;;;;;;;4.55;2.05;;;29.00;32.20;;;;;;5042170;28;20084;-79
2023/10/05 13:25:48;;;;;;;4.43;2.00;;;28.60;32.90;;;;;;5042426;28;20025;-78
2023/10/05 13:28:18;;;;;;;3.60;1.67;;;28.70;37.50;;;;;;5040161;28;20024;-78
2023/10/05 13:30:50;;;;;;;4.65;2.03;;;;;;;;;;5039675;28;20388;-76
2023/10/05 13:33:28;;;;;;;3.10;1.63;;;;;;;;;;5041269;28;20029;-78
2023/10/05 13:35:55;;;;;;;5.88;1.63;;;26.20;40.00;;;;;;5037114;28;20017;-79
2023/10/05 13:38:27;;;;;;;2.80;1.63;;;25.50;43.50;;;;;;5030714;28;20049;-78
2023/10/05 13:43:33;;;;;;;2.80;1.92;;;24.40;40.60;;;;;;5041982;28;20392;-78
2023/10/05 13:46:22;;;;;;;3.00;1.60;;;23.80;41.40;;;;;;5042684;28;20329;-79
2023/10/05 13:48:53;;;;;;;3.55;2.13;;;24.10;46.90;;;;;;5041285;28;20013;-78
2023/10/05 13:51:19;;;;;;;4.55;1.77;;;23.80;47.40;;;;;;5041188;28;20017;-79
2023/10/05 13:53:56;;;;;;;2.75;1.85;;;23.90;42.40;;;;;;5041490;28;20077;-79
2023/10/05 13:56:31;;;;;;;2.72;1.80;;;23.50;42.10;;;;;;5040805;28;20318;-79
2023/10/05 13:59:05;;;;;;;3.22;1.67;;;23.20;44.60;;;;;;5041282;28;20029;-79
2023/10/05 14:01:42;;;;;;;4.07;1.83;;;23.10;47.90;;;;;;5039603;28;20021;-79